Time;durP1;ratioP1;P1;durP2;ratioP2;P2;SDS_P1;SDS_P2;PMS_P1;PMS_P2;Temp;Humidity;BMP_temperature;BMP_pressure;BME280_temperature;BME280_humidity;BME280_pressure;Samples;Min_cycle;Max_cycle;Signal;HPM_P1;HPM_P2
2024/01/08 00:01:30;;;;;;;44.50;16.80;;;;;;;-128.00;-1.00;-1.00;100423;1281;1003563;-31
2024/01/08 00:03:56;;;;;;;37.30;12.60;;;;;;;-128.00;-1.00;-1.00;100199;1283;1002436;-30
2024/01/08 00:06:21;;;;;;;37.50;14.70;;;;;;;-128.00;-1.00;-1.00;100220;1283;1003278;-31
2024/01/08 00:08:47;;;;;;;48.20;17.60;;;;;;;-128.00;-1.00;-1.00;100217;1285;1004727;-29
2024/01/08 00:11:12;;;;;;;59.10;19.90;;;;;;;-128.00;-1.00;-1.00;100265;1281;1002877;-33
2024/01/08 00:13:38;;;;;;;43.80;15.40;;;;;;;-128.00;-1.00;-1.00;100410;1283;1056240;-30
2024/01/08 00:16:04;;;;;;;57.30;17.90;;;;;;;-128.00;-1.00;-1.00;100281;1283;1003410;-31
2024/01/08 00:18:29;;;;;;;42.10;13.90;;;;;;;-128.00;-1.00;-1.00;100510;1282;1005054;-30
2024/01/08 00:20:56;;;;;;;41.70;14.20;;;;;;;-128.00;-1.00;-1.00;100307;1283;1046897;-29
2024/01/08 00:23:23;;;;;;;46.60;17.60;;;;;;;-128.00;-1.00;-1.00;100366;1283;1002770;-33
2024/01/08 00:25:49;;;;;;;42.50;15.30;;;;;;;-128.00;-1.00;-1.00;100445;1282;1002984;-34
2024/01/08 00:28:14;;;;;;;45.70;16.80;;;;;;;-128.00;-1.00;-1.00;100312;1282;1004583;-30
2024/01/08 00:30:40;;;;;;;40.30;14.90;;;;;;;-128.00;-1.00;-1.00;100296;1282;1004161;-29
2024/01/08 00:33:06;;;;;;;50.20;18.00;;;;;;;-128.00;-1.00;-1.00;100275;1282;1046655;-32
2024/01/08 00:35:31;;;;;;;41.60;16.30;;;;;;;-128.00;-1.00;-1.00;100290;1283;1003954;-30
2024/01/08 00:37:57;;;;;;;58.70;20.20;;;;;;;-128.00;-1.00;-1.00;100293;1283;1003301;-32
2024/01/08 00:40:22;;;;;;;61.90;16.90;;;;;;;-128.00;-1.00;-1.00;100401;1282;1012676;-32
2024/01/08 00:42:48;;;;;;;48.40;13.00;;;;;;;-128.00;-1.00;-1.00;100335;1282;1003680;-29
2024/01/08 00:45:14;;;;;;;50.00;17.40;;;;;;;-128.00;-1.00;-1.00;100332;1281;1002647;-32
2024/01/08 00:47:40;;;;;;;39.30;13.90;;;;;;;-128.00;-1.00;-1.00;100213;1282;1056577;-30
2024/01/08 00:50:06;;;;;;;42.20;15.70;;;;;;;-128.00;-1.00;-1.00;100365;1282;1003805;-30
2024/01/08 00:52:32;;;;;;;41.30;13.40;;;;;;;-128.00;-1.00;-1.00;100348;1285;1003697;-31
2024/01/08 00:55:03;;;;;;;28.50;11.10;;;;;;;-128.00;-1.00;-1.00;100428;1282;1003226;-30
2024/01/08 00:57:29;;;;;;;36.40;13.60;;;;;;;-128.00;-1.00;-1.00;100332;1282;1059673;-31
2024/01/08 00:59:55;;;;;;;36.50;15.20;;;;;;;-128.00;-1.00;-1.00;100217;1282;1005076;-28
2024/01/08 01:02:21;;;;;;;43.80;14.70;;;;;;;-128.00;-1.00;-1.00;100256;1283;1003233;-33
2024/01/08 01:04:46;;;;;;;53.50;17.20;;;;;;;-128.00;-1.00;-1.00;100220;1285;1003337;-33
2024/01/08 01:07:12;;;;;;;87.90;23.90;;;;;;;-128.00;-1.00;-1.00;100370;1282;1005121;-31
2024/01/08 01:09:37;;;;;;;107.00;29.90;;;;;;;-128.00;-1.00;-1.00;100257;1283;1003277;-30
2024/01/08 01:12:04;;;;;;;67.50;19.60;;;;;;;-128.00;-1.00;-1.00;100275;1283;1058202;-32
2024/01/08 01:14:29;;;;;;;45.70;12.90;;;;;;;-128.00;-1.00;-1.00;100357;1282;1004489;-31
2024/01/08 01:16:55;;;;;;;64.20;18.10;;;;;;;-128.00;-1.00;-1.00;100418;1283;1003758;-30
2024/01/08 01:19:21;;;;;;;37.80;13.00;;;;;;;-128.00;-1.00;-1.00;100444;1282;1003604;-31
2024/01/08 01:21:47;;;;;;;25.30;11.30;;;;;;;-128.00;-1.00;-1.00;100316;1282;1003414;-30
2024/01/08 01:24:13;;;;;;;37.30;12.20;;;;;;;-128.00;-1.00;-1.00;100289;1282;1002998;-32
2024/01/08 01:26:38;;;;;;;24.20;10.50;;;;;;;-128.00;-1.00;-1.00;100300;1283;1003480;-30
2024/01/08 01:29:04;;;;;;;36.60;11.70;;;;;;;-128.00;-1.00;-1.00;100312;1283;1047205;-32
2024/01/08 01:31:31;;;;;;;27.50;10.40;;;;;;;-128.00;-1.00;-1.00;100434;1283;1003550;-32
2024/01/08 01:33:57;;;;;;;30.10;11.30;;;;;;;-128.00;-1.00;-1.00;100265;1282;1003637;-30
2024/01/08 01:36:22;;;;;;;;;;;;;;;-128.00;-1.00;-1.00;100320;1283;1003245;-31
2024/01/08 01:38:48;;;;;;;25.40;9.70;;;;;;;-128.00;-1.00;-1.00;100308;1283;1003021;-34
2024/01/08 01:41:14;;;;;;;28.90;11.70;;;;;;;-128.00;-1.00;-1.00;100336;1283;1046791;-32
2024/01/08 01:43:40;;;;;;;;;;;;;;;-128.00;-1.00;-1.00;100310;1283;1003571;-30
2024/01/08 01:46:23;;;;;;;36.40;12.80;;;;;;;-128.00;-1.00;-1.00;100355;1283;1005230;-29
2024/01/08 01:48:49;;;;;;;40.30;13.50;;;;;;;-128.00;-1.00;-1.00;100413;1285;1013725;-30
2024/01/08 01:51:14;;;;;;;;;;;;;;;-128.00;-1.00;-1.00;100409;1283;1002966;-30
2024/01/08 02:33:06;;;;;;;36.60;13.10;;;;;;;-9.94;96.42;100122.83;103518;1280;612689;-32
2024/01/08 02:35:32;;;;;;;77.20;19.70;;;;;;;-9.78;95.71;100129.77;103641;1279;85449;-31
2024/01/08 02:37:57;;;;;;;51.70;17.10;;;;;;;-9.77;95.87;100131.07;104124;1284;59353;-30
2024/01/08 02:40:23;;;;;;;55.40;17.40;;;;;;;-9.79;95.60;100127.88;103973;1283;59314;-30
2024/01/08 02:42:48;;;;;;;43.80;15.40;;;;;;;-9.79;95.25;100134.81;103908;1283;59703;-31
2024/01/08 02:45:14;;;;;;;31.80;12.00;;;;;;;-9.80;94.70;100141.59;103860;1284;59323;-31
2024/01/08 02:47:41;;;;;;;36.30;12.50;;;;;;;-9.85;95.01;100146.60;103867;1283;59529;-32
2024/01/08 02:50:07;;;;;;;42.20;14.50;;;;;;;-9.88;94.59;100147.41;104074;1279;60284;-33
2024/01/08 02:52:33;;;;;;;38.70;14.40;;;;;;;-9.88;94.87;100151.58;104110;1284;60355;-30
2024/01/08 02:54:59;;;;;;;40.30;12.40;;;;;;;-9.85;94.76;100148.87;104066;1285;60399;-30
2024/01/08 02:57:25;;;;;;;;;;;;;;;-9.80;95.28;100151.84;104055;1295;60918;-30
2024/01/08 02:59:51;;;;;;;33.60;11.00;;;;;;;-9.78;95.39;100156.77;103985;1284;60805;-30
2024/01/08 03:02:16;;;;;;;49.40;15.60;;;;;;;-9.78;95.33;100161.46;104179;1285;60885;-32
2024/01/08 03:04:42;;;;;;;42.60;13.20;;;;;;;-9.81;94.75;100162.77;103974;1284;60815;-31
2024/01/08 03:07:08;;;;;;;43.50;14.50;;;;;;;-9.87;94.59;100170.05;104012;1291;60907;-31
2024/01/08 03:09:33;;;;;;;44.20;15.60;;;;;;;-9.88;94.65;100168.00;104136;1291;60868;-33
2024/01/08 03:11:59;;;;;;;34.60;11.10;;;;;;;-9.94;93.86;100169.59;104134;1283;72492;-31
2024/01/08 03:14:25;;;;;;;62.80;17.20;;;;;;;-9.94;94.46;100169.77;104209;1283;60814;-34
2024/01/08 03:16:50;;;;;;;39.20;14.80;;;;;;;-9.92;93.86;100172.98;104181;1281;60898;-30
2024/01/08 03:19:16;;;;;;;31.10;10.50;;;;;;;-9.95;94.08;100172.39;104039;1282;60982;-32
2024/01/08 03:21:41;;;;;;;44.40;14.00;;;;;;;-9.96;94.13;100174.84;104109;1281;60872;-30
2024/01/08 03:24:07;;;;;;;35.90;13.30;;;;;;;-9.94;94.21;100179.80;104089;1291;60891;-40
2024/01/08 03:26:32;;;;;;;33.10;12.60;;;;;;;-9.93;94.10;100180.30;104114;1299;61254;-29
2024/01/08 03:28:58;;;;;;;38.30;12.90;;;;;;;-10.03;94.09;100182.00;103923;1280;60883;-30
2024/01/08 03:31:23;;;;;;;39.50;13.80;;;;;;;-10.01;93.35;100181.77;104038;1284;60811;-32
2024/01/08 03:33:49;;;;;;;34.70;12.50;;;;;;;-10.04;93.41;100187.21;103970;1284;60887;-31
2024/01/08 03:36:15;;;;;;;48.10;14.20;;;;;;;-10.13;93.63;100191.66;104115;1295;61565;-29
2024/01/08 03:38:41;;;;;;;33.70;12.30;;;;;;;-10.09;93.31;100193.77;103998;1299;60882;-32
2024/01/08 03:41:07;;;;;;;38.00;14.20;;;;;;;-10.02;93.86;100195.98;104022;1284;60818;-29
2024/01/08 03:43:33;;;;;;;39.30;13.80;;;;;;;-10.05;94.09;100193.14;104187;1288;60866;-32
2024/01/08 03:45:58;;;;;;;49.30;15.70;;;;;;;-9.99;94.22;100190.88;104126;1298;60841;-32
2024/01/08 03:48:24;;;;;;;56.50;18.40;;;;;;;-9.91;94.57;100193.91;103987;1284;68019;-31
2024/01/08 03:50:50;;;;;;;65.70;19.00;;;;;;;-9.90;94.76;100192.84;103952;1284;60899;-30
2024/01/08 03:53:16;;;;;;;33.20;12.30;;;;;;;-9.92;93.93;100194.30;104167;1298;60843;-31
2024/01/08 03:55:41;;;;;;;;;;;;;;;-10.02;93.05;100196.52;103847;1288;60783;-33
2024/01/08 03:58:07;;;;;;;40.10;12.80;;;;;;;-10.04;93.17;100200.05;104100;1294;60877;-30
2024/01/08 04:00:32;;;;;;;32.90;12.50;;;;;;;-10.03;93.25;100205.90;104004;1291;60876;-31
2024/01/08 04:02:58;;;;;;;31.10;11.40;;;;;;;-9.98;93.36;100202.08;104175;1299;60808;-33
2024/01/08 04:05:23;;;;;;;30.60;10.60;;;;;;;-10.09;92.24;100201.76;104040;1283;60815;-30
2024/01/08 04:07:50;;;;;;;;;;;;;;;-10.12;92.20;100204.63;104189;1284;60888;-30
2024/01/08 04:10:15;;;;;;;27.30;10.10;;;;;;;-10.14;91.96;100207.79;104066;1283;60907;-29
2024/01/08 04:12:41;;;;;;;28.60;10.90;;;;;;;-10.19;91.76;100212.45;104060;1289;60879;-32
2024/01/08 04:15:07;;;;;;;31.70;11.30;;;;;;;-10.15;91.95;100216.13;104112;1298;60892;-32
2024/01/08 04:17:33;;;;;;;32.10;13.10;;;;;;;-10.19;92.03;100218.70;104218;1283;60883;-32
2024/01/08 04:19:58;;;;;;;28.50;10.20;;;;;;;-10.10;91.52;100223.23;104159;1284;60882;-32
2024/01/08 04:22:24;;;;;;;28.70;11.80;;;;;;;-10.18;91.70;100226.11;104120;1293;60898;-35
2024/01/08 04:24:49;;;;;;;28.60;11.60;;;;;;;-10.21;92.55;100231.02;104135;1291;60793;-34
2024/01/08 04:27:15;;;;;;;25.20;10.30;;;;;;;-10.18;92.78;100231.13;104080;1283;67723;-32
2024/01/08 04:29:40;;;;;;;31.30;11.90;;;;;;;-10.20;92.19;100232.55;104172;1285;62447;-29
2024/01/08 04:32:06;;;;;;;41.90;15.50;;;;;;;-10.20;91.82;100234.64;103961;1282;60865;-29
2024/01/08 04:34:32;;;;;;;35.50;13.40;;;;;;;-10.15;91.75;100237.80;104021;1288;60860;-28
2024/01/08 04:36:58;;;;;;;29.80;10.90;;;;;;;-10.19;91.91;100239.46;104085;1284;60909;-29
2024/01/08 04:39:24;;;;;;;32.30;12.40;;;;;;;-10.22;91.79;100241.46;104085;1298;60911;-30
2024/01/08 04:41:49;;;;;;;27.20;11.70;;;;;;;-10.14;92.28;100243.66;104087;1284;60799;-34
2024/01/08 04:44:15;;;;;;;32.00;12.20;;;;;;;-10.18;91.40;100247.23;104179;1291;60828;-31
2024/01/08 04:46:44;;;;;;;30.70;11.60;;;;;;;-10.20;91.14;100246.75;104143;1281;60630;-31
2024/01/08 04:49:09;;;;;;;30.30;12.90;;;;;;;-10.23;91.44;100256.03;104108;1280;60747;-32
2024/01/08 04:51:35;;;;;;;38.50;13.60;;;;;;;-10.21;91.24;100256.67;104111;1290;60868;-30
2024/01/08 04:54:01;;;;;;;;;;;;;;;-10.20;90.80;100262.35;104066;1284;60814;-33
2024/01/08 04:56:30;;;;;;;22.60;10.10;;;;;;;-10.26;90.77;100264.95;104018;1287;60866;-32
2024/01/08 04:58:55;;;;;;;40.30;12.90;;;;;;;-10.30;90.31;100270.30;104204;1284;60931;-30
2024/01/08 05:01:21;;;;;;;34.30;12.50;;;;;;;-10.31;91.34;100278.45;104131;1285;60834;-30
2024/01/08 05:03:47;;;;;;;30.90;11.90;;;;;;;-10.28;90.95;100276.80;104109;1284;60895;-32
2024/01/08 05:06:13;;;;;;;33.50;12.00;;;;;;;-10.22;90.85;100275.39;104034;1284;60886;-33
2024/01/08 05:08:39;;;;;;;;;;;;;;;-10.28;91.27;100284.78;104039;1298;60868;-29
2024/01/08 05:11:05;;;;;;;31.80;11.20;;;;;;;-10.26;91.91;100290.45;104118;1285;60834;-31
2024/01/08 05:13:32;;;;;;;29.40;12.20;;;;;;;-10.23;92.20;100289.61;104131;1284;60805;-30
2024/01/08 05:15:58;;;;;;;37.50;13.50;;;;;;;-10.17;91.75;100287.71;104084;1284;60849;-31
2024/01/08 05:18:23;;;;;;;29.00;12.30;;;;;;;-10.16;91.84;100283.36;104103;1284;60805;-31
2024/01/08 05:20:49;;;;;;;36.30;13.70;;;;;;;-10.22;91.32;100287.01;104134;1291;61092;-29
2024/01/08 05:23:15;;;;;;;25.40;10.20;;;;;;;-10.21;91.25;100294.25;103798;1287;60841;-29
2024/01/08 05:25:41;;;;;;;31.60;11.40;;;;;;;-10.23;90.88;100301.58;104133;1301;61284;-32
2024/01/08 05:28:07;;;;;;;;;;;;;;;-10.20;90.80;100306.17;104047;1280;60959;-30
2024/01/08 05:30:33;;;;;;;46.50;14.50;;;;;;;-10.17;90.66;100301.39;104179;1284;61351;-32
2024/01/08 05:32:59;;;;;;;49.10;15.30;;;;;;;-10.21;90.28;100308.79;103987;1284;60876;-32
2024/01/08 05:35:24;;;;;;;51.10;16.00;;;;;;;-10.16;90.26;100315.77;104137;1288;61359;-31
2024/01/08 05:37:50;;;;;;;36.80;13.80;;;;;;;-10.16;90.80;100320.23;104076;1294;61515;-31
2024/01/08 05:40:15;;;;;;;28.40;11.80;;;;;;;-10.20;90.85;100317.75;104106;1295;60815;-32
2024/01/08 05:42:41;;;;;;;38.50;13.20;;;;;;;-10.20;91.22;100324.16;104181;1284;60875;-29
2024/01/08 05:45:07;;;;;;;31.80;11.40;;;;;;;-10.17;91.59;100328.95;104082;1291;60789;-32
2024/01/08 05:47:36;;;;;;;28.50;11.20;;;;;;;-10.14;91.31;100332.82;104134;1284;68238;-29
2024/01/08 05:50:04;;;;;;;49.10;16.10;;;;;;;-10.10;91.50;100332.04;104024;1284;72044;-30
2024/01/08 05:52:30;;;;;;;53.10;17.60;;;;;;;-10.09;90.92;100330.10;104127;1283;60966;-31
2024/01/08 05:54:56;;;;;;;52.60;15.20;;;;;;;-10.04;91.20;100326.15;104076;1283;60886;-30
2024/01/08 05:57:22;;;;;;;44.70;15.00;;;;;;;-10.12;90.46;100329.14;104122;1284;60815;-29
2024/01/08 05:59:48;;;;;;;53.70;16.20;;;;;;;-10.14;90.92;100327.48;104139;1296;60872;-32
2024/01/08 06:02:13;;;;;;;;;;;;;;;-10.17;90.65;100327.88;104052;1284;60896;-30
2024/01/08 06:04:39;;;;;;;75.80;19.60;;;;;;;-10.10;90.78;100336.54;104043;1294;60870;-30
2024/01/08 06:07:04;;;;;;;48.60;15.00;;;;;;;-10.09;91.26;100337.88;104045;1285;60820;-36
2024/01/08 06:09:30;;;;;;;30.70;10.50;;;;;;;-10.11;90.64;100334.84;103851;1285;60735;-31
2024/01/08 06:11:56;;;;;;;54.60;14.50;;;;;;;-10.17;90.32;100336.36;104075;1299;60871;-28
2024/01/08 06:14:21;;;;;;;24.90;9.20;;;;;;;-10.10;91.00;100338.27;103998;1284;68012;-29
2024/01/08 06:16:47;;;;;;;36.50;13.30;;;;;;;-10.08;90.88;100341.85;104018;1285;60846;-31
2024/01/08 06:19:12;;;;;;;53.90;17.80;;;;;;;-10.05;90.75;100342.27;104120;1284;60796;-30
2024/01/08 06:21:38;;;;;;;49.70;15.90;;;;;;;-10.03;90.97;100343.42;104067;1288;61000;-30
2024/01/08 06:24:04;;;;;;;44.70;16.30;;;;;;;-10.02;90.96;100348.06;104104;1285;60879;-31
2024/01/08 06:26:30;;;;;;;36.50;12.70;;;;;;;-10.03;90.31;100350.20;104093;1285;60889;-32
2024/01/08 06:28:56;;;;;;;38.80;14.60;;;;;;;-10.02;90.89;100351.02;104019;1284;60866;-31
2024/01/08 06:31:21;;;;;;;29.40;12.00;;;;;;;-10.01;90.74;100358.78;103984;1298;60863;-30
2024/01/08 06:33:47;;;;;;;33.40;11.80;;;;;;;-10.00;90.63;100365.00;104084;1282;60771;-31
2024/01/08 06:36:13;;;;;;;30.20;10.80;;;;;;;-10.03;90.07;100367.17;104018;1284;62024;-30
2024/01/08 06:38:39;;;;;;;35.20;11.40;;;;;;;-10.07;90.50;100375.08;104032;1284;61600;-31
2024/01/08 06:41:05;;;;;;;35.40;11.70;;;;;;;-10.03;90.11;100381.20;104094;1298;61988;-30
2024/01/08 06:43:31;;;;;;;38.40;12.70;;;;;;;-10.04;90.33;100383.98;104052;1284;62209;-30
2024/01/08 06:45:56;;;;;;;33.80;11.80;;;;;;;-10.02;89.49;100383.44;104106;1292;61730;-31
2024/01/08 06:48:22;;;;;;;43.40;14.70;;;;;;;-9.97;89.95;100382.40;104079;1291;61843;-30
2024/01/08 06:50:47;;;;;;;30.80;12.50;;;;;;;-10.03;90.06;100386.75;103899;1284;61636;-29
2024/01/08 06:53:13;;;;;;;36.40;14.20;;;;;;;-9.98;89.48;100387.80;104012;1284;68060;-29
2024/01/08 06:55:38;;;;;;;31.10;11.50;;;;;;;-9.98;89.71;100391.27;104073;1284;61739;-30
2024/01/08 06:58:04;;;;;;;35.50;13.20;;;;;;;-9.96;89.05;100395.89;104046;1284;61692;-31
2024/01/08 07:00:30;;;;;;;65.20;18.60;;;;;;;-9.91;89.81;100398.35;104044;1298;62412;-31
2024/01/08 07:02:55;;;;;;;67.70;17.90;;;;;;;-9.90;89.84;100404.73;104100;1284;61692;-29
2024/01/08 07:05:21;;;;;;;54.30;17.10;;;;;;;-9.85;90.20;100406.85;104088;1291;61708;-40
2024/01/08 07:07:47;;;;;;;;;;;;;;;-9.89;90.33;100408.50;104110;1295;61703;-31
2024/01/08 07:10:12;;;;;;;26.50;8.50;;;;;;;-9.87;90.27;100414.17;104032;1284;61619;-32
2024/01/08 07:12:38;;;;;;;27.20;10.60;;;;;;;-9.96;90.94;100418.23;104013;1284;61689;-32
2024/01/08 07:15:04;;;;;;;39.30;13.40;;;;;;;-9.96;91.23;100419.13;104175;1282;61627;-30
2024/01/08 07:17:30;;;;;;;34.30;13.20;;;;;;;-9.93;91.81;100419.18;104214;1284;61615;-31
2024/01/08 07:19:55;;;;;;;40.00;12.50;;;;;;;-9.95;92.42;100419.94;104097;1291;62255;-32
2024/01/08 07:22:21;;;;;;;;;;;;;;;-9.91;93.19;100424.15;104049;1284;61704;-32
2024/01/08 07:24:47;;;;;;;33.80;12.90;;;;;;;-9.87;92.65;100425.98;104072;1288;61685;-30
2024/01/08 07:27:12;;;;;;;36.50;12.40;;;;;;;-9.86;93.21;100426.97;104068;1292;61714;-30
2024/01/08 07:29:38;;;;;;;32.40;11.50;;;;;;;-9.85;92.87;100436.83;104051;1283;74067;-33
2024/01/08 07:32:03;;;;;;;34.40;11.10;;;;;;;-9.91;92.84;100444.79;103994;1283;61632;-30
2024/01/08 07:34:29;;;;;;;44.80;13.90;;;;;;;-9.87;93.03;100445.54;103965;1285;61698;-30
2024/01/08 07:36:55;;;;;;;49.40;19.50;;;;;;;-9.87;93.12;100450.89;104164;1297;61687;-35
2024/01/08 07:39:20;;;;;;;49.70;16.30;;;;;;;-9.85;92.62;100457.11;103914;1284;61740;-33
2024/01/08 07:41:47;;;;;;;110.80;25.80;;;;;;;-9.87;92.80;100458.17;104087;1296;61710;-29
2024/01/08 07:44:14;;;;;;;97.80;27.70;;;;;;;-9.83;93.46;100458.42;103878;1284;61644;-29
2024/01/08 07:46:39;;;;;;;42.40;15.10;;;;;;;-9.84;93.31;100460.20;104110;1285;61717;-31
2024/01/08 07:49:05;;;;;;;31.90;11.60;;;;;;;-9.81;93.21;100468.92;104028;1291;61708;-30
2024/01/08 07:51:30;;;;;;;39.10;13.30;;;;;;;-9.89;92.58;100472.44;104017;1299;61686;-31
2024/01/08 07:53:56;;;;;;;43.00;16.40;;;;;;;-9.92;92.08;100478.77;103992;1282;61528;-33
2024/01/08 07:56:24;;;;;;;38.00;15.30;;;;;;;-9.92;92.43;100482.92;104131;1281;61917;-29
2024/01/08 07:58:50;;;;;;;36.20;12.60;;;;;;;-9.90;92.92;100489.63;103989;1285;68169;-33
2024/01/08 08:01:16;;;;;;;43.60;13.30;;;;;;;-9.89;93.22;100493.23;103997;1300;61709;-30
2024/01/08 08:03:41;;;;;;;;;;;;;;;-9.92;93.20;100496.27;104055;1284;61689;-30
2024/01/08 08:06:07;;;;;;;47.40;12.80;;;;;;;-9.93;93.05;100499.06;104075;1296;61699;-32
2024/01/08 08:08:36;;;;;;;41.30;13.90;;;;;;;-9.96;93.54;100500.02;104034;1283;61685;-30
2024/01/08 08:11:03;;;;;;;46.20;14.90;;;;;;;-9.94;93.17;100502.04;103976;1284;73858;-29
2024/01/08 08:13:29;;;;;;;42.60;15.10;;;;;;;-10.05;92.71;100503.00;104079;1284;67802;-33
2024/01/08 08:15:55;;;;;;;;;;;;;;;-10.03;93.16;100505.91;103952;1285;61644;-31
2024/01/08 08:18:20;;;;;;;44.10;15.60;;;;;;;-9.99;93.77;100503.55;103949;1285;61755;-33
2024/01/08 08:20:46;;;;;;;34.20;11.80;;;;;;;-10.05;93.65;100504.91;104021;1296;61704;-30
2024/01/08 08:23:14;;;;;;;39.70;13.90;;;;;;;-10.03;93.37;100507.98;103894;1284;61778;-31
2024/01/08 08:25:40;;;;;;;43.00;15.30;;;;;;;-10.04;92.96;100510.08;104098;1284;61670;-33
2024/01/08 08:28:06;;;;;;;;;;;;;;;-10.02;92.61;100514.35;104065;1283;61729;-31
2024/01/08 08:30:31;;;;;;;130.40;29.70;;;;;;;-10.04;93.21;100512.00;104086;1299;61707;-31
2024/01/08 08:32:58;;;;;;;90.50;22.70;;;;;;;-10.02;93.23;100518.17;104007;1292;61655;-30
2024/01/08 08:35:28;;;;;;;92.40;24.00;;;;;;;-10.03;92.67;100518.02;103827;1284;61720;-32
2024/01/08 08:37:56;;;;;;;81.60;23.00;;;;;;;-9.97;92.66;100519.42;104125;1281;61515;-31
2024/01/08 08:40:22;;;;;;;61.50;20.60;;;;;;;-9.91;92.89;100522.04;104060;1284;73616;-36
2024/01/08 08:42:48;;;;;;;51.60;15.50;;;;;;;-9.87;92.59;100525.77;104034;1284;61699;-32
2024/01/08 08:45:17;;;;;;;68.60;21.70;;;;;;;-9.84;92.36;100535.36;104006;1284;61714;-29
2024/01/08 08:47:43;;;;;;;45.20;16.40;;;;;;;-9.78;92.75;100538.52;104050;1284;61731;-31
2024/01/08 08:50:09;;;;;;;;;;;;;;;-9.82;92.17;100544.17;104084;1285;61711;-29
2024/01/08 08:52:34;;;;;;;36.50;13.40;;;;;;;-9.72;92.56;100542.87;103853;1300;61690;-30
2024/01/08 08:55:00;;;;;;;49.60;16.80;;;;;;;-9.62;92.50;100549.71;104107;1298;62221;-30
2024/01/08 08:57:26;;;;;;;60.70;15.60;;;;;;;-9.62;91.83;100555.25;103892;1284;61752;-32
2024/01/08 08:59:51;;;;;;;48.00;16.60;;;;;;;-9.69;91.93;100555.43;103936;1292;61687;-30
2024/01/08 09:02:18;;;;;;;45.20;14.40;;;;;;;-9.70;91.51;100557.21;104128;1300;61702;-30
2024/01/08 09:04:43;;;;;;;49.70;16.90;;;;;;;-9.76;91.23;100564.64;104210;1282;61595;-31
2024/01/08 09:07:09;;;;;;;34.30;12.60;;;;;;;-9.75;91.27;100565.14;104027;1285;61682;-28
2024/01/08 09:09:37;;;;;;;39.90;14.60;;;;;;;-9.73;91.46;100570.64;104067;1296;61654;-31
2024/01/08 09:12:03;;;;;;;49.70;15.00;;;;;;;-9.70;90.47;100575.38;103990;1284;72216;-29
2024/01/08 09:14:28;;;;;;;;;;;;;;;-9.50;90.81;100580.75;104077;1284;61714;-29
2024/01/08 09:16:53;;;;;;;40.70;14.50;;;;;;;-9.32;90.38;100582.17;104040;1301;61742;-31
2024/01/08 09:19:19;;;;;;;34.10;11.90;;;;;;;-8.98;91.34;100584.86;104051;1292;61696;-31
2024/01/08 09:21:46;;;;;;;33.60;12.20;;;;;;;-8.88;89.30;100585.62;104103;1294;62132;-28
2024/01/08 09:24:12;;;;;;;32.10;12.90;;;;;;;-8.75;88.76;100584.89;104226;1283;61561;-30
2024/01/08 09:26:39;;;;;;;;;;;;;;;-8.45;88.68;100580.49;103989;1284;61629;-31
2024/01/08 09:29:05;;;;;;;62.10;20.80;;;;;;;-8.35;87.70;100584.33;103983;1284;61608;-30
2024/01/08 09:31:32;;;;;;;41.40;14.30;;;;;;;-8.26;87.01;100588.23;104116;1291;61686;-31
2024/01/08 09:33:58;;;;;;;45.00;16.80;;;;;;;-8.15;86.68;100586.15;104013;1284;61647;-30
2024/01/08 09:36:24;;;;;;;54.80;20.30;;;;;;;-8.21;85.69;100590.49;104012;1298;61788;-32
2024/01/08 09:38:50;;;;;;;38.00;16.80;;;;;;;-8.09;85.78;100590.98;103868;1284;61593;-31
2024/01/08 09:41:16;;;;;;;44.10;16.30;;;;;;;-8.16;84.86;100589.99;104103;1284;61707;-34
2024/01/08 09:43:44;;;;;;;49.30;16.90;;;;;;;-8.12;85.53;100592.45;103990;1291;61709;-32
2024/01/08 09:46:11;;;;;;;54.80;19.30;;;;;;;-7.96;85.33;100596.30;103912;1300;61818;-30
2024/01/08 09:48:37;;;;;;;40.00;14.00;;;;;;;-7.82;84.65;100601.23;104029;1285;61586;-33
2024/01/08 09:51:03;;;;;;;39.80;16.10;;;;;;;-7.91;84.52;100602.55;104072;1299;61739;-30
2024/01/08 09:53:29;;;;;;;37.90;13.60;;;;;;;-8.05;83.51;100604.59;104028;1285;62026;-30
2024/01/08 09:55:55;;;;;;;35.90;14.40;;;;;;;-8.27;83.37;100601.95;104059;1285;61727;-31
2024/01/08 09:58:20;;;;;;;37.20;13.00;;;;;;;-8.23;83.30;100604.80;104039;1296;61619;-33
2024/01/08 10:00:46;;;;;;;46.60;17.60;;;;;;;-8.50;83.40;100610.53;104012;1285;61714;-29
2024/01/08 10:03:12;;;;;;;40.60;15.40;;;;;;;-8.55;84.77;100610.00;104008;1284;61626;-29
2024/01/08 10:05:38;;;;;;;35.80;15.40;;;;;;;-8.41;84.54;100607.98;104016;1298;61779;-29
2024/01/08 10:08:05;;;;;;;66.50;23.80;;;;;;;-8.49;83.81;100610.31;104061;1284;61641;-30
2024/01/08 10:10:32;;;;;;;51.20;17.70;;;;;;;-8.57;84.68;100611.77;103993;1298;61677;-30
2024/01/08 10:12:58;;;;;;;37.40;14.90;;;;;;;-8.75;84.48;100610.41;104129;1285;61723;-31
2024/01/08 10:15:24;;;;;;;47.00;18.40;;;;;;;-8.69;85.10;100608.30;104082;1284;61717;-30
2024/01/08 10:17:49;;;;;;;43.10;16.50;;;;;;;-8.49;84.95;100611.90;104079;1284;61711;-31
2024/01/08 10:20:16;;;;;;;49.60;17.90;;;;;;;-8.32;83.88;100612.04;104046;1299;61732;-36
2024/01/08 10:22:43;;;;;;;81.50;22.00;;;;;;;-8.21;83.94;100608.02;103998;1284;71301;-33
2024/01/08 10:25:08;;;;;;;48.90;18.80;;;;;;;-8.10;83.65;100609.95;104037;1285;61598;-29
2024/01/08 10:27:34;;;;;;;47.60;16.90;;;;;;;-7.92;83.03;100612.30;103889;1285;61718;-31
2024/01/08 10:30:00;;;;;;;41.70;15.10;;;;;;;-7.69;82.19;100607.41;104051;1298;61793;-29
2024/01/08 10:32:25;;;;;;;60.90;19.70;;;;;;;-7.59;82.00;100606.35;104032;1299;61625;-29
2024/01/08 10:34:51;;;;;;;48.20;18.00;;;;;;;-7.08;83.53;100601.98;104040;1285;61742;-32
2024/01/08 10:37:20;;;;;;;52.70;18.20;;;;;;;-6.81;81.88;100605.48;103954;1285;61634;-32
2024/01/08 10:39:47;;;;;;;57.00;19.10;;;;;;;-6.86;79.90;100605.69;104022;1285;61637;-32
2024/01/08 10:42:13;;;;;;;61.20;23.20;;;;;;;-6.93;78.50;100604.36;104091;1285;61675;-31
2024/01/08 10:44:40;;;;;;;62.10;22.10;;;;;;;-6.97;78.23;100607.64;104150;1282;61593;-31
2024/01/08 10:47:07;;;;;;;43.20;17.90;;;;;;;-6.85;78.22;100607.54;104119;1283;61949;-31
2024/01/08 10:49:35;;;;;;;32.20;13.50;;;;;;;-6.89;77.29;100607.87;104020;1285;67943;-32
2024/01/08 10:52:03;;;;;;;43.30;16.80;;;;;;;-6.79;77.62;100609.25;104017;1284;71223;-31
2024/01/08 10:54:39;;;;;;;47.60;17.80;;;;;;;-6.84;76.79;100617.09;104210;1281;61801;-31
2024/01/08 10:57:06;;;;;;;46.00;18.50;;;;;;;-6.44;78.20;100605.67;104094;1284;61599;-31
2024/01/08 10:59:32;;;;;;;49.20;19.00;;;;;;;-6.32;76.20;100608.50;104041;1280;61593;-31
2024/01/08 11:01:57;;;;;;;46.80;18.20;;;;;;;-6.40;74.74;100609.17;104050;1285;61647;-31
2024/01/08 11:04:23;;;;;;;54.60;17.60;;;;;;;-6.42;74.95;100612.56;104101;1294;61682;-33
2024/01/08 11:06:48;;;;;;;36.70;13.70;;;;;;;-6.34;74.43;100614.16;103820;1298;61703;-30
2024/01/08 11:09:26;;;;;;;35.00;12.00;;;;;;;-6.16;74.15;100614.32;104067;1285;61684;-29
2024/01/08 11:11:54;;;;;;;56.40;19.40;;;;;;;-6.04;73.42;100617.19;104132;1285;61622;-33
2024/01/08 11:14:19;;;;;;;62.70;21.80;;;;;;;-5.95;73.93;100617.68;104063;1280;61673;-32
2024/01/08 11:16:45;;;;;;;59.70;18.50;;;;;;;-5.63;72.84;100619.84;104119;1285;61705;-33
2024/01/08 11:19:26;;;;;;;;;;;;;;;-5.66;71.70;100621.30;104053;1298;61673;-31
2024/01/08 11:21:55;;;;;;;43.40;15.70;;;;;;;-5.65;70.75;100623.42;104027;1283;72217;-33
2024/01/08 11:24:21;;;;;;;45.40;18.80;;;;;;;-5.46;71.93;100620.13;104080;1285;61717;-32
2024/01/08 11:26:49;;;;;;;;;;;;;;;-5.56;69.93;100622.83;104025;1284;61622;-31
2024/01/08 11:29:18;;;;;;;41.90;16.30;;;;;;;-5.75;70.43;100621.70;104074;1280;61598;-31
2024/01/08 11:32:15;;;;;;;36.20;15.00;;;;;;;-5.55;69.93;100621.77;104028;1285;74059;-33
2024/01/08 11:34:56;;;;;;;43.80;16.50;;;;;;;-5.65;68.30;100621.65;104055;1283;68702;-30
2024/01/08 11:37:35;;;;;;;52.00;17.70;;;;;;;-5.82;68.45;100623.39;103989;1284;72175;-33
2024/01/08 11:40:21;;;;;;;54.60;22.10;;;;;;;-5.99;68.87;100618.20;104044;1285;61607;-32